Airfield :
LOGIN :

Register | Disclaimer

   EN    FR    IT 

 










Legend :    VFR   Marginal VFR   IFR   Intensive IFR   Very Intensive IFR
Visi :
Ceiling :
>= 8 km
>= 3000ft
5 to 8 km
1000 to 3000 ft
1500m to 5 km
500 to 1000 ft
800 to 1500m
200 to 500 ft
< 800m
< 200 ft
Symbols :   Thunderstorms  Fog  Heavy snow  Heavy precipitations  Wind > 20 kt
SIGMETs :     Misc.  Thunderstorms  Icing  Turbulence  Mountain Waves  Volcanic Ashes






- Airport Elevation : 1084 ft
- IATA code : EPL


LFSG - Épinal-Mirecourt

CURRENT METAR :
  • 291030Z AUTO VRB02KT 9999 -RA FEW006/// OVC038/// ///TCU 10/08 Q1002

EXPIRED METARs :
  • 291000Z AUTO VRB02KT 9999 -RA BKN006/// BKN011/// OVC045/// ///TCU 10/08 Q1002
  • 290930Z AUTO 13003KT 9999 -RA SCT004/// SCT033/// BKN047/// ///TCU 09/08 Q1002
  • 290900Z AUTO 16003KT 9999 -RA SCT049/// OVC062/// ///TCU 09/08 Q1002
  • 290830Z AUTO 24004KT 9999 -RA SCT005/// BKN042/// OVC056/// ///TCU 09/08 Q1002
  • 290800Z AUTO 27003KT 9999 -RA SCT004/// OVC047/// ///TCU 08/07 Q1001

TAF N/A



MET'MAP, your aeronautical weather chart ! - Copyright ORBIFLY December 2007 - Disclaimer

ORBIFLY MET'MAP TEAM :

Programming & Development : Alexandra Zaïnal
Original concept : Baudouin d'Aumeries
Technical & hardware support : Manuel Goepfert
Assistance : Marc-Olivier Méhu




SOURCES & CREDITS :

   NOAA